sensor_id;sensor_type;location;lat;lon;timestamp;P1;durP1;ratioP1;P2;durP2;ratioP2
17340;SDS011;8788;49.930;8.660;2023-03-24T00:00:59;2.45;;;1.88;;
17340;SDS011;8788;49.930;8.660;2023-03-24T00:03:28;3.58;;;2.60;;
17340;SDS011;8788;49.930;8.660;2023-03-24T00:05:56;2.90;;;2.05;;
17340;SDS011;8788;49.930;8.660;2023-03-24T00:08:26;3.40;;;2.45;;
17340;SDS011;8788;49.930;8.660;2023-03-24T00:10:57;5.45;;;2.55;;
17340;SDS011;8788;49.930;8.660;2023-03-24T00:13:26;5.63;;;3.42;;
17340;SDS011;8788;49.930;8.660;2023-03-24T00:15:54;5.28;;;2.92;;
17340;SDS011;8788;49.930;8.660;2023-03-24T00:18:22;4.85;;;2.97;;
17340;SDS011;8788;49.930;8.660;2023-03-24T00:20:51;4.07;;;2.70;;
17340;SDS011;8788;49.930;8.660;2023-03-24T00:23:22;3.15;;;2.17;;
17340;SDS011;8788;49.930;8.660;2023-03-24T00:25:57;3.60;;;2.40;;
17340;SDS011;8788;49.930;8.660;2023-03-24T00:28:27;5.63;;;2.53;;
17340;SDS011;8788;49.930;8.660;2023-03-24T00:30:57;3.65;;;2.30;;
17340;SDS011;8788;49.930;8.660;2023-03-24T00:33:24;4.88;;;2.50;;
17340;SDS011;8788;49.930;8.660;2023-03-24T00:35:51;4.03;;;2.30;;
17340;SDS011;8788;49.930;8.660;2023-03-24T00:38:19;2.63;;;2.13;;
17340;SDS011;8788;49.930;8.660;2023-03-24T00:40:47;1.98;;;1.80;;
17340;SDS011;8788;49.930;8.660;2023-03-24T00:43:15;2.90;;;1.90;;
17340;SDS011;8788;49.930;8.660;2023-03-24T00:45:43;2.67;;;1.90;;
17340;SDS011;8788;49.930;8.660;2023-03-24T00:48:13;2.58;;;1.90;;
17340;SDS011;8788;49.930;8.660;2023-03-24T00:50:43;3.75;;;1.60;;
17340;SDS011;8788;49.930;8.660;2023-03-24T00:53:11;4.00;;;2.38;;
17340;SDS011;8788;49.930;8.660;2023-03-24T00:55:40;2.63;;;2.03;;
17340;SDS011;8788;49.930;8.660;2023-03-24T00:58:10;2.47;;;2.15;;
17340;SDS011;8788;49.930;8.660;2023-03-24T01:00:42;2.60;;;1.88;;
17340;SDS011;8788;49.930;8.660;2023-03-24T01:03:09;2.05;;;1.80;;
17340;SDS011;8788;49.930;8.660;2023-03-24T01:05:39;2.25;;;1.80;;
17340;SDS011;8788;49.930;8.660;2023-03-24T01:08:13;2.17;;;1.90;;
17340;SDS011;8788;49.930;8.660;2023-03-24T01:10:45;1.92;;;1.75;;
17340;SDS011;8788;49.930;8.660;2023-03-24T01:13:17;3.50;;;2.47;;
17340;SDS011;8788;49.930;8.660;2023-03-24T01:15:45;7.05;;;2.35;;
17340;SDS011;8788;49.930;8.660;2023-03-24T01:18:14;5.68;;;2.40;;
17340;SDS011;8788;49.930;8.660;2023-03-24T01:20:44;2.63;;;1.80;;
17340;SDS011;8788;49.930;8.660;2023-03-24T01:23:17;3.10;;;1.95;;
17340;SDS011;8788;49.930;8.660;2023-03-24T01:25:48;2.00;;;1.80;;
17340;SDS011;8788;49.930;8.660;2023-03-24T01:28:17;2.67;;;2.25;;
17340;SDS011;8788;49.930;8.660;2023-03-24T01:30:47;2.95;;;1.70;;
17340;SDS011;8788;49.930;8.660;2023-03-24T01:33:15;3.30;;;1.80;;
17340;SDS011;8788;49.930;8.660;2023-03-24T01:35:44;2.33;;;1.63;;
17340;SDS011;8788;49.930;8.660;2023-03-24T01:38:11;3.72;;;1.73;;
17340;SDS011;8788;49.930;8.660;2023-03-24T01:40:40;5.20;;;2.13;;
17340;SDS011;8788;49.930;8.660;2023-03-24T01:43:13;2.33;;;1.90;;
17340;SDS011;8788;49.930;8.660;2023-03-24T01:48:43;4.00;;;1.80;;
17340;SDS011;8788;49.930;8.660;2023-03-24T01:51:18;2.47;;;1.60;;
17340;SDS011;8788;49.930;8.660;2023-03-24T01:53:50;3.92;;;1.75;;
17340;SDS011;8788;49.930;8.660;2023-03-24T01:56:19;2.35;;;2.10;;
17340;SDS011;8788;49.930;8.660;2023-03-24T01:58:48;3.28;;;1.48;;
17340;SDS011;8788;49.930;8.660;2023-03-24T02:01:23;4.88;;;1.88;;
17340;SDS011;8788;49.930;8.660;2023-03-24T02:04:27;5.15;;;2.15;;
17340;SDS011;8788;49.930;8.660;2023-03-24T02:07:03;2.08;;;1.55;;
17340;SDS011;8788;49.930;8.660;2023-03-24T02:09:35;3.20;;;1.75;;
17340;SDS011;8788;49.930;8.660;2023-03-24T02:12:03;2.60;;;1.92;;
17340;SDS011;8788;49.930;8.660;2023-03-24T02:14:31;1.30;;;1.20;;
17340;SDS011;8788;49.930;8.660;2023-03-24T02:17:04;2.40;;;1.50;;
17340;SDS011;8788;49.930;8.660;2023-03-24T02:19:49;3.38;;;2.00;;
17340;SDS011;8788;49.930;8.660;2023-03-24T02:22:44;2.60;;;1.73;;
17340;SDS011;8788;49.930;8.660;2023-03-24T02:28:53;3.05;;;2.03;;
17340;SDS011;8788;49.930;8.660;2023-03-24T02:31:35;3.63;;;1.95;;
17340;SDS011;8788;49.930;8.660;2023-03-24T02:34:33;3.13;;;2.20;;
17340;SDS011;8788;49.930;8.660;2023-03-24T02:37:30;3.85;;;2.30;;
17340;SDS011;8788;49.930;8.660;2023-03-24T02:40:23;3.28;;;2.00;;
17340;SDS011;8788;49.930;8.660;2023-03-24T02:43:12;3.40;;;2.42;;
17340;SDS011;8788;49.930;8.660;2023-03-24T02:45:49;3.95;;;2.05;;
17340;SDS011;8788;49.930;8.660;2023-03-24T02:48:27;5.35;;;2.53;;
17340;SDS011;8788;49.930;8.660;2023-03-24T02:51:03;4.50;;;2.97;;
17340;SDS011;8788;49.930;8.660;2023-03-24T02:53:36;5.05;;;2.63;;
17340;SDS011;8788;49.930;8.660;2023-03-24T02:56:26;4.93;;;2.60;;
17340;SDS011;8788;49.930;8.660;2023-03-24T02:59:08;3.63;;;2.30;;
17340;SDS011;8788;49.930;8.660;2023-03-24T03:01:42;2.78;;;1.90;;
17340;SDS011;8788;49.930;8.660;2023-03-24T03:04:32;2.00;;;1.70;;
17340;SDS011;8788;49.930;8.660;2023-03-24T03:07:04;1.73;;;1.58;;
17340;SDS011;8788;49.930;8.660;2023-03-24T03:09:38;2.63;;;1.70;;
17340;SDS011;8788;49.930;8.660;2023-03-24T03:12:23;1.63;;;1.50;;
17340;SDS011;8788;49.930;8.660;2023-03-24T03:14:54;1.63;;;1.30;;
17340;SDS011;8788;49.930;8.660;2023-03-24T03:17:26;2.55;;;1.73;;
17340;SDS011;8788;49.930;8.660;2023-03-24T03:19:58;2.75;;;1.67;;
17340;SDS011;8788;49.930;8.660;2023-03-24T03:22:36;2.88;;;2.08;;
17340;SDS011;8788;49.930;8.660;2023-03-24T03:25:08;1.80;;;1.70;;
17340;SDS011;8788;49.930;8.660;2023-03-24T03:27:41;1.63;;;1.48;;
17340;SDS011;8788;49.930;8.660;2023-03-24T03:30:12;1.85;;;1.70;;
17340;SDS011;8788;49.930;8.660;2023-03-24T03:32:44;5.25;;;1.50;;
17340;SDS011;8788;49.930;8.660;2023-03-24T03:35:19;2.08;;;1.67;;
17340;SDS011;8788;49.930;8.660;2023-03-24T03:37:52;3.15;;;1.55;;
17340;SDS011;8788;49.930;8.660;2023-03-24T03:40:27;2.22;;;1.55;;
17340;SDS011;8788;49.930;8.660;2023-03-24T03:43:09;2.72;;;1.63;;
17340;SDS011;8788;49.930;8.660;2023-03-24T03:45:36;4.30;;;2.05;;
17340;SDS011;8788;49.930;8.660;2023-03-24T03:48:04;2.08;;;1.88;;
17340;SDS011;8788;49.930;8.660;2023-03-24T03:50:31;3.92;;;2.17;;
17340;SDS011;8788;49.930;8.660;2023-03-24T03:53:04;2.13;;;1.90;;
17340;SDS011;8788;49.930;8.660;2023-03-24T03:55:32;3.33;;;1.88;;
17340;SDS011;8788;49.930;8.660;2023-03-24T03:58:01;1.75;;;1.65;;
17340;SDS011;8788;49.930;8.660;2023-03-24T04:00:36;3.75;;;2.03;;
17340;SDS011;8788;49.930;8.660;2023-03-24T04:03:41;2.13;;;1.92;;
17340;SDS011;8788;49.930;8.660;2023-03-24T04:06:39;2.38;;;2.00;;
17340;SDS011;8788;49.930;8.660;2023-03-24T04:09:18;3.40;;;2.33;;
17340;SDS011;8788;49.930;8.660;2023-03-24T04:18:32;2.92;;;2.63;;
17340;SDS011;8788;49.930;8.660;2023-03-24T04:21:24;3.05;;;2.40;;
17340;SDS011;8788;49.930;8.660;2023-03-24T04:24:07;3.55;;;2.53;;
17340;SDS011;8788;49.930;8.660;2023-03-24T04:26:51;2.58;;;2.33;;
17340;SDS011;8788;49.930;8.660;2023-03-24T04:29:29;4.38;;;2.83;;
17340;SDS011;8788;49.930;8.660;2023-03-24T04:32:03;2.78;;;2.55;;
17340;SDS011;8788;49.930;8.660;2023-03-24T04:34:39;3.55;;;2.80;;
17340;SDS011;8788;49.930;8.660;2023-03-24T04:37:33;3.90;;;2.83;;
17340;SDS011;8788;49.930;8.660;2023-03-24T04:40:12;3.97;;;2.53;;
17340;SDS011;8788;49.930;8.660;2023-03-24T04:42:44;4.47;;;3.05;;
17340;SDS011;8788;49.930;8.660;2023-03-24T04:45:17;3.47;;;2.70;;
17340;SDS011;8788;49.930;8.660;2023-03-24T04:48:06;3.78;;;3.05;;
17340;SDS011;8788;49.930;8.660;2023-03-24T04:50:47;3.40;;;3.10;;
17340;SDS011;8788;49.930;8.660;2023-03-24T04:53:19;2.92;;;2.70;;
17340;SDS011;8788;49.930;8.660;2023-03-24T04:55:51;4.70;;;2.60;;
17340;SDS011;8788;49.930;8.660;2023-03-24T04:58:43;3.08;;;2.78;;
17340;SDS011;8788;49.930;8.660;2023-03-24T05:01:10;3.72;;;2.95;;
17340;SDS011;8788;49.930;8.660;2023-03-24T05:03:43;3.65;;;2.95;;
17340;SDS011;8788;49.930;8.660;2023-03-24T05:06:10;3.28;;;2.97;;
17340;SDS011;8788;49.930;8.660;2023-03-24T05:08:38;4.93;;;3.88;;
17340;SDS011;8788;49.930;8.660;2023-03-24T05:11:05;3.60;;;3.00;;
17340;SDS011;8788;49.930;8.660;2023-03-24T05:13:34;5.30;;;3.92;;
17340;SDS011;8788;49.930;8.660;2023-03-24T05:16:01;5.15;;;3.45;;
17340;SDS011;8788;49.930;8.660;2023-03-24T05:18:35;4.05;;;3.08;;
17340;SDS011;8788;49.930;8.660;2023-03-24T05:21:04;3.42;;;3.10;;
17340;SDS011;8788;49.930;8.660;2023-03-24T05:23:33;4.05;;;3.35;;
17340;SDS011;8788;49.930;8.660;2023-03-24T05:26:01;3.55;;;3.25;;
17340;SDS011;8788;49.930;8.660;2023-03-24T05:28:31;3.42;;;3.13;;
17340;SDS011;8788;49.930;8.660;2023-03-24T05:30:58;3.05;;;2.80;;
17340;SDS011;8788;49.930;8.660;2023-03-24T05:33:51;3.28;;;3.00;;
17340;SDS011;8788;49.930;8.660;2023-03-24T05:36:22;3.85;;;3.05;;
17340;SDS011;8788;49.930;8.660;2023-03-24T05:38:53;4.57;;;3.00;;
17340;SDS011;8788;49.930;8.660;2023-03-24T05:41:23;4.22;;;2.90;;
17340;SDS011;8788;49.930;8.660;2023-03-24T05:43:50;3.50;;;2.50;;
17340;SDS011;8788;49.930;8.660;2023-03-24T05:46:18;3.38;;;2.90;;
17340;SDS011;8788;49.930;8.660;2023-03-24T05:48:47;4.03;;;2.47;;
17340;SDS011;8788;49.930;8.660;2023-03-24T05:51:15;3.85;;;2.78;;
17340;SDS011;8788;49.930;8.660;2023-03-24T05:53:45;3.13;;;2.53;;
17340;SDS011;8788;49.930;8.660;2023-03-24T05:56:12;2.70;;;2.50;;
17340;SDS011;8788;49.930;8.660;2023-03-24T05:59:11;2.72;;;2.33;;
17340;SDS011;8788;49.930;8.660;2023-03-24T06:02:05;5.18;;;2.42;;
17340;SDS011;8788;49.930;8.660;2023-03-24T06:04:56;2.30;;;2.08;;
17340;SDS011;8788;49.930;8.660;2023-03-24T06:07:25;2.40;;;2.20;;
17340;SDS011;8788;49.930;8.660;2023-03-24T06:09:57;2.97;;;2.60;;
17340;SDS011;8788;49.930;8.660;2023-03-24T06:12:30;3.92;;;2.33;;
17340;SDS011;8788;49.930;8.660;2023-03-24T06:15:00;3.83;;;2.20;;
17340;SDS011;8788;49.930;8.660;2023-03-24T06:17:28;2.30;;;2.20;;
17340;SDS011;8788;49.930;8.660;2023-03-24T06:20:00;7.72;;;2.45;;
17340;SDS011;8788;49.930;8.660;2023-03-24T06:22:59;2.67;;;2.20;;
17340;SDS011;8788;49.930;8.660;2023-03-24T06:25:35;2.95;;;2.38;;
17340;SDS011;8788;49.930;8.660;2023-03-24T06:28:13;3.35;;;2.47;;
17340;SDS011;8788;49.930;8.660;2023-03-24T06:30:43;3.28;;;2.17;;
17340;SDS011;8788;49.930;8.660;2023-03-24T06:33:14;3.58;;;2.50;;
17340;SDS011;8788;49.930;8.660;2023-03-24T06:35:43;4.35;;;2.08;;
17340;SDS011;8788;49.930;8.660;2023-03-24T06:38:13;3.13;;;2.45;;
17340;SDS011;8788;49.930;8.660;2023-03-24T06:40:43;2.22;;;2.03;;
17340;SDS011;8788;49.930;8.660;2023-03-24T06:43:10;2.45;;;2.00;;
17340;SDS011;8788;49.930;8.660;2023-03-24T06:45:40;4.38;;;2.38;;
17340;SDS011;8788;49.930;8.660;2023-03-24T06:48:13;2.20;;;1.88;;
17340;SDS011;8788;49.930;8.660;2023-03-24T06:50:40;3.97;;;2.10;;
17340;SDS011;8788;49.930;8.660;2023-03-24T06:53:09;4.28;;;1.88;;
17340;SDS011;8788;49.930;8.660;2023-03-24T06:55:37;3.22;;;1.45;;
17340;SDS011;8788;49.930;8.660;2023-03-24T06:58:06;3.30;;;2.03;;
17340;SDS011;8788;49.930;8.660;2023-03-24T07:00:54;1.75;;;1.65;;
17340;SDS011;8788;49.930;8.660;2023-03-24T07:03:34;4.95;;;1.83;;
17340;SDS011;8788;49.930;8.660;2023-03-24T07:06:28;3.20;;;1.88;;
17340;SDS011;8788;49.930;8.660;2023-03-24T07:09:02;1.48;;;1.38;;
17340;SDS011;8788;49.930;8.660;2023-03-24T07:11:29;1.80;;;1.40;;
17340;SDS011;8788;49.930;8.660;2023-03-24T07:14:00;2.25;;;2.03;;
17340;SDS011;8788;49.930;8.660;2023-03-24T07:16:28;2.05;;;1.85;;
17340;SDS011;8788;49.930;8.660;2023-03-24T07:19:03;1.75;;;1.63;;
17340;SDS011;8788;49.930;8.660;2023-03-24T07:21:34;1.50;;;1.40;;
17340;SDS011;8788;49.930;8.660;2023-03-24T07:24:01;1.38;;;1.27;;
17340;SDS011;8788;49.930;8.660;2023-03-24T07:26:34;1.50;;;1.40;;
17340;SDS011;8788;49.930;8.660;2023-03-24T07:29:19;1.30;;;1.20;;
17340;SDS011;8788;49.930;8.660;2023-03-24T07:31:59;1.65;;;1.40;;
17340;SDS011;8788;49.930;8.660;2023-03-24T07:34:28;1.95;;;1.30;;
17340;SDS011;8788;49.930;8.660;2023-03-24T07:36:56;1.67;;;1.58;;
17340;SDS011;8788;49.930;8.660;2023-03-24T07:39:23;1.55;;;1.45;;
17340;SDS011;8788;49.930;8.660;2023-03-24T07:41:50;1.63;;;1.52;;
17340;SDS011;8788;49.930;8.660;2023-03-24T07:44:29;1.70;;;1.60;;
17340;SDS011;8788;49.930;8.660;2023-03-24T07:46:58;2.45;;;1.85;;
17340;SDS011;8788;49.930;8.660;2023-03-24T07:49:26;2.22;;;1.63;;
17340;SDS011;8788;49.930;8.660;2023-03-24T07:52:02;2.50;;;2.30;;
17340;SDS011;8788;49.930;8.660;2023-03-24T07:54:36;3.08;;;1.77;;
17340;SDS011;8788;49.930;8.660;2023-03-24T07:57:04;3.10;;;1.98;;
17340;SDS011;8788;49.930;8.660;2023-03-24T07:59:32;3.22;;;2.30;;
17340;SDS011;8788;49.930;8.660;2023-03-24T08:02:17;2.28;;;2.08;;
17340;SDS011;8788;49.930;8.660;2023-03-24T08:05:14;7.13;;;2.95;;
17340;SDS011;8788;49.930;8.660;2023-03-24T08:08:13;2.67;;;2.47;;
17340;SDS011;8788;49.930;8.660;2023-03-24T08:10:40;3.35;;;2.78;;
17340;SDS011;8788;49.930;8.660;2023-03-24T08:13:09;4.38;;;2.88;;
17340;SDS011;8788;49.930;8.660;2023-03-24T08:15:38;4.28;;;3.10;;
17340;SDS011;8788;49.930;8.660;2023-03-24T08:18:05;2.72;;;2.53;;
17340;SDS011;8788;49.930;8.660;2023-03-24T08:20:32;3.40;;;3.10;;
17340;SDS011;8788;49.930;8.660;2023-03-24T08:22:59;2.78;;;2.58;;
17340;SDS011;8788;49.930;8.660;2023-03-24T08:25:28;2.50;;;2.33;;
17340;SDS011;8788;49.930;8.660;2023-03-24T08:27:56;2.75;;;2.45;;
17340;SDS011;8788;49.930;8.660;2023-03-24T08:30:23;3.00;;;2.78;;
17340;SDS011;8788;49.930;8.660;2023-03-24T08:32:54;6.13;;;3.28;;
17340;SDS011;8788;49.930;8.660;2023-03-24T08:35:23;3.40;;;2.78;;
17340;SDS011;8788;49.930;8.660;2023-03-24T08:37:51;2.83;;;2.63;;
17340;SDS011;8788;49.930;8.660;2023-03-24T08:40:19;3.00;;;2.78;;
17340;SDS011;8788;49.930;8.660;2023-03-24T08:42:49;3.10;;;2.80;;
17340;SDS011;8788;49.930;8.660;2023-03-24T08:45:17;4.53;;;3.22;;
17340;SDS011;8788;49.930;8.660;2023-03-24T08:47:46;2.88;;;2.67;;
17340;SDS011;8788;49.930;8.660;2023-03-24T08:50:16;4.53;;;3.28;;
17340;SDS011;8788;49.930;8.660;2023-03-24T08:52:44;3.35;;;3.05;;
17340;SDS011;8788;49.930;8.660;2023-03-24T08:55:12;3.75;;;3.40;;
17340;SDS011;8788;49.930;8.660;2023-03-24T08:57:39;3.42;;;3.13;;
17340;SDS011;8788;49.930;8.660;2023-03-24T09:00:07;5.97;;;3.20;;
17340;SDS011;8788;49.930;8.660;2023-03-24T09:02:37;6.85;;;3.20;;
17340;SDS011;8788;49.930;8.660;2023-03-24T09:05:05;3.22;;;2.83;;
17340;SDS011;8788;49.930;8.660;2023-03-24T09:07:33;6.15;;;3.03;;
17340;SDS011;8788;49.930;8.660;2023-03-24T09:10:00;3.03;;;2.72;;
17340;SDS011;8788;49.930;8.660;2023-03-24T09:12:27;3.90;;;3.20;;
17340;SDS011;8788;49.930;8.660;2023-03-24T09:14:55;3.28;;;2.95;;
17340;SDS011;8788;49.930;8.660;2023-03-24T09:17:22;4.65;;;2.75;;
17340;SDS011;8788;49.930;8.660;2023-03-24T09:19:49;3.13;;;2.70;;
17340;SDS011;8788;49.930;8.660;2023-03-24T09:22:16;3.80;;;2.53;;
17340;SDS011;8788;49.930;8.660;2023-03-24T09:24:44;2.55;;;2.33;;
17340;SDS011;8788;49.930;8.660;2023-03-24T09:27:13;2.60;;;2.40;;
17340;SDS011;8788;49.930;8.660;2023-03-24T09:29:40;2.90;;;2.22;;
17340;SDS011;8788;49.930;8.660;2023-03-24T09:32:08;2.83;;;2.35;;
17340;SDS011;8788;49.930;8.660;2023-03-24T09:34:35;2.40;;;2.15;;
17340;SDS011;8788;49.930;8.660;2023-03-24T09:37:02;2.80;;;2.22;;
17340;SDS011;8788;49.930;8.660;2023-03-24T09:39:30;2.75;;;1.98;;
17340;SDS011;8788;49.930;8.660;2023-03-24T09:41:58;2.75;;;1.88;;
17340;SDS011;8788;49.930;8.660;2023-03-24T09:44:26;2.83;;;1.63;;
17340;SDS011;8788;49.930;8.660;2023-03-24T09:46:57;2.28;;;1.98;;
17340;SDS011;8788;49.930;8.660;2023-03-24T09:49:26;3.58;;;1.73;;
17340;SDS011;8788;49.930;8.660;2023-03-24T09:51:55;2.50;;;1.83;;
17340;SDS011;8788;49.930;8.660;2023-03-24T09:54:27;2.05;;;1.85;;
17340;SDS011;8788;49.930;8.660;2023-03-24T09:57:02;1.75;;;1.30;;
17340;SDS011;8788;49.930;8.660;2023-03-24T09:59:34;3.25;;;1.50;;
17340;SDS011;8788;49.930;8.660;2023-03-24T10:02:03;4.22;;;1.00;;
17340;SDS011;8788;49.930;8.660;2023-03-24T10:04:37;4.43;;;1.05;;
17340;SDS011;8788;49.930;8.660;2023-03-24T10:07:05;0.90;;;0.80;;
17340;SDS011;8788;49.930;8.660;2023-03-24T10:09:38;1.42;;;0.88;;
17340;SDS011;8788;49.930;8.660;2023-03-24T10:12:13;1.45;;;0.90;;
17340;SDS011;8788;49.930;8.660;2023-03-24T10:14:56;2.97;;;0.80;;
17340;SDS011;8788;49.930;8.660;2023-03-24T10:17:35;1.92;;;1.27;;
17340;SDS011;8788;49.930;8.660;2023-03-24T10:20:14;0.45;;;0.45;;
17340;SDS011;8788;49.930;8.660;2023-03-24T10:22:51;1.40;;;0.55;;
17340;SDS011;8788;49.930;8.660;2023-03-24T10:25:30;3.42;;;0.50;;
17340;SDS011;8788;49.930;8.660;2023-03-24T10:28:10;0.50;;;0.40;;
17340;SDS011;8788;49.930;8.660;2023-03-24T10:30:42;2.65;;;0.55;;
17340;SDS011;8788;49.930;8.660;2023-03-24T10:33:10;1.10;;;0.40;;
17340;SDS011;8788;49.930;8.660;2023-03-24T10:35:40;0.93;;;0.45;;
17340;SDS011;8788;49.930;8.660;2023-03-24T10:38:12;1.48;;;0.60;;
17340;SDS011;8788;49.930;8.660;2023-03-24T10:40:42;0.30;;;0.30;;
17340;SDS011;8788;49.930;8.660;2023-03-24T10:43:12;1.17;;;0.60;;
17340;SDS011;8788;49.930;8.660;2023-03-24T10:45:42;0.65;;;0.65;;
17340;SDS011;8788;49.930;8.660;2023-03-24T10:48:11;0.82;;;0.52;;
17340;SDS011;8788;49.930;8.660;2023-03-24T10:50:41;0.40;;;0.40;;
17340;SDS011;8788;49.930;8.660;2023-03-24T10:53:15;0.77;;;0.35;;
17340;SDS011;8788;49.930;8.660;2023-03-24T10:55:44;1.55;;;0.45;;
17340;SDS011;8788;49.930;8.660;2023-03-24T10:58:16;2.70;;;0.65;;
17340;SDS011;8788;49.930;8.660;2023-03-24T11:00:46;2.10;;;0.80;;
17340;SDS011;8788;49.930;8.660;2023-03-24T11:03:14;0.75;;;0.68;;
17340;SDS011;8788;49.930;8.660;2023-03-24T11:05:47;2.92;;;0.57;;
17340;SDS011;8788;49.930;8.660;2023-03-24T11:08:22;3.17;;;0.77;;
17340;SDS011;8788;49.930;8.660;2023-03-24T11:10:54;1.13;;;0.80;;
17340;SDS011;8788;49.930;8.660;2023-03-24T11:13:27;2.80;;;0.68;;
17340;SDS011;8788;49.930;8.660;2023-03-24T11:15:56;0.50;;;0.50;;
17340;SDS011;8788;49.930;8.660;2023-03-24T11:18:31;2.55;;;0.50;;
17340;SDS011;8788;49.930;8.660;2023-03-24T11:20:58;1.35;;;0.30;;
17340;SDS011;8788;49.930;8.660;2023-03-24T11:23:29;0.52;;;0.52;;
17340;SDS011;8788;49.930;8.660;2023-03-24T11:26:02;0.38;;;0.30;;
17340;SDS011;8788;49.930;8.660;2023-03-24T11:28:35;2.70;;;1.00;;
17340;SDS011;8788;49.930;8.660;2023-03-24T11:31:06;1.13;;;0.50;;
17340;SDS011;8788;49.930;8.660;2023-03-24T11:33:40;0.98;;;0.50;;
17340;SDS011;8788;49.930;8.660;2023-03-24T11:39:18;0.57;;;0.50;;
17340;SDS011;8788;49.930;8.660;2023-03-24T11:44:45;2.53;;;0.70;;
17340;SDS011;8788;49.930;8.660;2023-03-24T11:47:16;1.08;;;0.50;;
17340;SDS011;8788;49.930;8.660;2023-03-24T11:49:50;1.10;;;0.43;;
17340;SDS011;8788;49.930;8.660;2023-03-24T11:52:23;1.60;;;0.50;;
17340;SDS011;8788;49.930;8.660;2023-03-24T11:54:53;1.38;;;0.50;;
17340;SDS011;8788;49.930;8.660;2023-03-24T11:57:23;0.63;;;0.63;;
17340;SDS011;8788;49.930;8.660;2023-03-24T12:00:05;2.25;;;0.73;;
17340;SDS011;8788;49.930;8.660;2023-03-24T12:02:42;3.78;;;0.90;;
17340;SDS011;8788;49.930;8.660;2023-03-24T12:05:24;2.78;;;0.60;;
17340;SDS011;8788;49.930;8.660;2023-03-24T12:08:09;1.95;;;0.60;;
17340;SDS011;8788;49.930;8.660;2023-03-24T12:10:54;3.78;;;0.60;;
17340;SDS011;8788;49.930;8.660;2023-03-24T12:13:34;1.48;;;0.45;;
17340;SDS011;8788;49.930;8.660;2023-03-24T12:16:12;1.00;;;0.50;;
17340;SDS011;8788;49.930;8.660;2023-03-24T12:21:54;3.05;;;0.50;;
17340;SDS011;8788;49.930;8.660;2023-03-24T12:24:34;1.38;;;0.60;;
17340;SDS011;8788;49.930;8.660;2023-03-24T12:27:19;2.78;;;0.47;;
17340;SDS011;8788;49.930;8.660;2023-03-24T12:29:57;3.70;;;0.80;;
17340;SDS011;8788;49.930;8.660;2023-03-24T12:35:39;1.50;;;0.57;;
17340;SDS011;8788;49.930;8.660;2023-03-24T12:41:23;5.43;;;0.77;;
17340;SDS011;8788;49.930;8.660;2023-03-24T12:44:19;1.70;;;0.50;;
17340;SDS011;8788;49.930;8.660;2023-03-24T12:47:06;3.75;;;1.15;;
17340;SDS011;8788;49.930;8.660;2023-03-24T12:49:45;2.95;;;0.93;;
17340;SDS011;8788;49.930;8.660;2023-03-24T12:52:28;3.50;;;0.90;;
17340;SDS011;8788;49.930;8.660;2023-03-24T12:55:09;1.38;;;0.52;;
17340;SDS011;8788;49.930;8.660;2023-03-24T12:57:43;1.55;;;0.50;;
17340;SDS011;8788;49.930;8.660;2023-03-24T13:00:16;1.45;;;0.75;;
17340;SDS011;8788;49.930;8.660;2023-03-24T13:02:49;6.93;;;0.75;;
17340;SDS011;8788;49.930;8.660;2023-03-24T13:05:20;1.42;;;0.80;;
17340;SDS011;8788;49.930;8.660;2023-03-24T13:07:52;1.15;;;0.63;;
17340;SDS011;8788;49.930;8.660;2023-03-24T13:10:24;2.60;;;0.75;;
17340;SDS011;8788;49.930;8.660;2023-03-24T13:12:54;3.58;;;0.98;;
17340;SDS011;8788;49.930;8.660;2023-03-24T13:15:26;1.05;;;0.60;;
17340;SDS011;8788;49.930;8.660;2023-03-24T13:18:02;2.08;;;0.45;;
17340;SDS011;8788;49.930;8.660;2023-03-24T13:20:40;2.70;;;0.70;;
17340;SDS011;8788;49.930;8.660;2023-03-24T13:23:22;1.15;;;0.82;;
17340;SDS011;8788;49.930;8.660;2023-03-24T13:25:59;1.35;;;0.70;;
17340;SDS011;8788;49.930;8.660;2023-03-24T13:28:33;3.38;;;0.80;;
17340;SDS011;8788;49.930;8.660;2023-03-24T13:31:09;2.03;;;0.68;;
17340;SDS011;8788;49.930;8.660;2023-03-24T13:33:38;0.88;;;0.85;;
17340;SDS011;8788;49.930;8.660;2023-03-24T13:36:20;1.52;;;0.70;;
17340;SDS011;8788;49.930;8.660;2023-03-24T13:39:00;3.28;;;0.90;;
17340;SDS011;8788;49.930;8.660;2023-03-24T13:41:31;1.52;;;0.60;;
17340;SDS011;8788;49.930;8.660;2023-03-24T13:44:02;3.60;;;0.80;;
17340;SDS011;8788;49.930;8.660;2023-03-24T13:46:34;4.20;;;1.42;;
17340;SDS011;8788;49.930;8.660;2023-03-24T13:49:02;1.00;;;0.60;;
17340;SDS011;8788;49.930;8.660;2023-03-24T13:51:33;1.42;;;0.88;;
17340;SDS011;8788;49.930;8.660;2023-03-24T13:54:04;0.80;;;0.60;;
17340;SDS011;8788;49.930;8.660;2023-03-24T13:56:38;2.17;;;0.80;;
17340;SDS011;8788;49.930;8.660;2023-03-24T13:59:21;0.98;;;0.60;;
17340;SDS011;8788;49.930;8.660;2023-03-24T14:05:07;3.70;;;0.90;;
17340;SDS011;8788;49.930;8.660;2023-03-24T14:07:44;1.83;;;0.77;;
17340;SDS011;8788;49.930;8.660;2023-03-24T14:13:17;3.38;;;0.73;;
17340;SDS011;8788;49.930;8.660;2023-03-24T14:15:49;2.25;;;0.75;;
17340;SDS011;8788;49.930;8.660;2023-03-24T14:21:08;1.60;;;0.68;;
17340;SDS011;8788;49.930;8.660;2023-03-24T14:23:37;1.65;;;0.80;;
17340;SDS011;8788;49.930;8.660;2023-03-24T14:26:07;3.85;;;0.85;;
17340;SDS011;8788;49.930;8.660;2023-03-24T14:28:38;1.50;;;1.15;;
17340;SDS011;8788;49.930;8.660;2023-03-24T14:31:09;2.05;;;0.70;;
17340;SDS011;8788;49.930;8.660;2023-03-24T14:33:58;5.97;;;1.23;;
17340;SDS011;8788;49.930;8.660;2023-03-24T14:36:31;4.82;;;0.70;;
17340;SDS011;8788;49.930;8.660;2023-03-24T14:39:16;2.05;;;0.60;;
17340;SDS011;8788;49.930;8.660;2023-03-24T14:41:50;1.70;;;0.90;;
17340;SDS011;8788;49.930;8.660;2023-03-24T14:47:19;1.15;;;0.70;;
17340;SDS011;8788;49.930;8.660;2023-03-24T14:49:47;1.85;;;0.80;;
17340;SDS011;8788;49.930;8.660;2023-03-24T14:52:17;1.58;;;0.82;;
17340;SDS011;8788;49.930;8.660;2023-03-24T14:54:51;2.03;;;0.77;;
17340;SDS011;8788;49.930;8.660;2023-03-24T14:57:21;3.22;;;0.95;;
17340;SDS011;8788;49.930;8.660;2023-03-24T14:59:51;2.38;;;1.00;;
17340;SDS011;8788;49.930;8.660;2023-03-24T15:02:26;2.08;;;0.70;;
17340;SDS011;8788;49.930;8.660;2023-03-24T15:05:16;2.25;;;0.70;;
17340;SDS011;8788;49.930;8.660;2023-03-24T15:07:57;2.35;;;0.80;;
17340;SDS011;8788;49.930;8.660;2023-03-24T15:10:27;3.05;;;0.65;;
17340;SDS011;8788;49.930;8.660;2023-03-24T15:13:00;3.30;;;0.80;;
17340;SDS011;8788;49.930;8.660;2023-03-24T15:15:28;2.50;;;0.70;;
17340;SDS011;8788;49.930;8.660;2023-03-24T15:17:55;3.75;;;0.85;;
17340;SDS011;8788;49.930;8.660;2023-03-24T15:20:23;3.10;;;0.80;;
17340;SDS011;8788;49.930;8.660;2023-03-24T15:22:52;2.85;;;0.85;;
17340;SDS011;8788;49.930;8.660;2023-03-24T15:25:23;2.78;;;0.77;;
17340;SDS011;8788;49.930;8.660;2023-03-24T15:27:53;3.13;;;0.93;;
17340;SDS011;8788;49.930;8.660;2023-03-24T15:30:21;2.30;;;0.52;;
17340;SDS011;8788;49.930;8.660;2023-03-24T15:32:48;3.20;;;0.80;;
17340;SDS011;8788;49.930;8.660;2023-03-24T15:35:17;3.28;;;1.02;;
17340;SDS011;8788;49.930;8.660;2023-03-24T15:37:48;1.50;;;0.60;;
17340;SDS011;8788;49.930;8.660;2023-03-24T15:43:14;3.08;;;0.90;;
17340;SDS011;8788;49.930;8.660;2023-03-24T15:45:44;3.22;;;0.80;;
17340;SDS011;8788;49.930;8.660;2023-03-24T15:48:16;2.67;;;0.82;;
17340;SDS011;8788;49.930;8.660;2023-03-24T15:50:54;1.80;;;0.95;;
17340;SDS011;8788;49.930;8.660;2023-03-24T15:53:23;1.90;;;0.90;;
17340;SDS011;8788;49.930;8.660;2023-03-24T15:56:05;2.10;;;1.77;;
17340;SDS011;8788;49.930;8.660;2023-03-24T15:58:46;14.00;;;12.77;;
17340;SDS011;8788;49.930;8.660;2023-03-24T16:01:19;2.15;;;0.77;;
17340;SDS011;8788;49.930;8.660;2023-03-24T16:03:55;1.23;;;0.80;;
17340;SDS011;8788;49.930;8.660;2023-03-24T16:06:25;2.30;;;0.68;;
17340;SDS011;8788;49.930;8.660;2023-03-24T16:08:57;2.20;;;1.17;;
17340;SDS011;8788;49.930;8.660;2023-03-24T16:11:25;1.23;;;0.63;;
17340;SDS011;8788;49.930;8.660;2023-03-24T16:13:55;1.40;;;1.02;;
17340;SDS011;8788;49.930;8.660;2023-03-24T16:16:23;3.50;;;0.95;;
17340;SDS011;8788;49.930;8.660;2023-03-24T16:18:53;5.57;;;1.05;;
17340;SDS011;8788;49.930;8.660;2023-03-24T16:21:23;1.80;;;0.73;;